Time;durP1;ratioP1;P1;durP2;ratioP2;P2;SDS_P1;SDS_P2;PMS_P1;PMS_P2;Temp;Humidity;BMP_temperature;BMP_pressure;BME280_temperature;BME280_humidity;BME280_pressure;Samples;Min_cycle;Max_cycle;Signal;HPM_P1;HPM_P2
2023/05/11 07:38:02;;;;;;;23.27;21.48;;;22.60;99.90;;;;;;6302745;22;20056;-94
2023/05/11 07:59:21;;;;;;;25.58;23.33;;;24.70;99.90;;;;;;6321370;22;20037;-91
2023/05/11 08:08:46;;;;;;;26.88;25.00;;;25.40;99.90;;;;;;6178821;23;20096;-95
2023/05/11 08:14:20;;;;;;;34.58;27.67;;;25.70;99.90;;;;;;6328814;22;20050;-93
2023/05/11 08:17:11;;;;;;;27.52;25.40;;;26.20;99.90;;;;;;6201356;23;20028;-94
2023/05/11 08:22:57;;;;;;;28.48;26.17;;;26.90;99.90;;;;;;6356508;22;20045;-93
2023/05/11 08:25:24;;;;;;;26.85;24.85;;;26.30;99.90;;;;;;6289696;22;20395;-92
2023/05/11 08:27:50;;;;;;;27.48;25.35;;;25.80;99.90;;;;;;6288524;22;20098;-94
2023/05/11 08:30:17;;;;;;;27.38;25.33;;;25.90;99.90;;;;;;6288169;22;20554;-93
2023/05/11 08:32:44;;;;;;;27.85;25.77;;;25.50;99.90;;;;;;6287978;22;20085;-92
2023/05/11 08:35:12;;;;;;;27.20;25.02;;;25.30;99.90;;;;;;6287681;22;20003;-92
2023/05/11 08:37:38;;;;;;;27.10;25.02;;;25.10;99.90;;;;;;6288704;22;20372;-92
2023/05/11 08:40:05;;;;;;;26.75;24.73;;;25.20;99.90;;;;;;6288687;22;20002;-91
2023/05/11 08:42:35;;;;;;;26.90;24.77;;;25.90;99.90;;;;;;6288412;22;20041;-94
2023/05/11 08:45:03;;;;;;;26.75;24.85;;;25.30;99.90;;;;;;6315427;22;20007;-94
2023/05/11 08:47:30;;;;;;;26.17;24.42;;;24.90;99.90;;;;;;6289290;22;20010;-92
2023/05/11 08:49:57;;;;;;;26.60;24.77;;;25.60;99.90;;;;;;6288940;22;20010;-92
2023/05/11 08:52:26;;;;;;;27.38;25.38;;;26.00;99.90;;;;;;6289365;22;20018;-93
2023/05/11 08:54:55;;;;;;;27.30;25.30;;;26.30;99.90;;;;;;6315360;22;20030;-92
2023/05/11 08:57:21;;;;;;;27.35;25.42;;;26.90;99.90;;;;;;6288587;22;20336;-93
2023/05/11 08:59:51;;;;;;;27.90;26.00;;;27.50;99.90;;;;;;6289414;22;20034;-93
2023/05/11 09:02:19;;;;;;;27.30;25.40;;;27.10;99.90;;;;;;6289193;22;20037;-93
2023/05/11 09:04:46;;;;;;;27.38;25.40;;;26.20;99.90;;;;;;6288885;22;20133;-92
2023/05/11 09:07:16;;;;;;;27.42;25.15;;;25.50;99.90;;;;;;6288782;22;20015;-91
2023/05/11 09:09:43;;;;;;;26.95;24.60;;;25.40;99.90;;;;;;6315465;22;20003;-93
2023/05/11 09:12:10;;;;;;;26.17;24.48;;;25.60;99.90;;;;;;6290311;22;20007;-91
2023/05/11 09:14:40;;;;;;;27.42;25.30;;;25.70;99.90;;;;;;6293121;22;20019;-93
2023/05/11 09:17:10;;;;;;;27.73;25.38;;;26.10;99.90;;;;;;6266039;22;20071;-93
2023/05/11 09:19:41;;;;;;;27.30;25.17;;;25.80;99.90;;;;;;6247722;22;19996;-95
2023/05/11 09:22:07;;;;;;;27.70;25.83;;;25.80;99.90;;;;;;6231639;22;20007;-93
2023/05/11 09:24:41;;;;;;;27.75;25.83;;;25.50;99.90;;;;;;6231577;22;20000;-94
2023/05/11 09:27:18;;;;;;;27.50;25.40;;;25.20;99.90;;;;;;6233796;22;20025;-93
2023/05/11 09:30:19;;;;;;;27.70;25.70;;;25.30;99.90;;;;;;6129408;23;20016;-94
2023/05/11 09:32:52;;;;;;;27.70;25.67;;;25.30;99.90;;;;;;6135223;23;20097;-93
2023/05/11 10:19:38;;;;;;;27.50;25.60;;;24.80;99.90;;;;;;6322724;22;20073;-94
2023/05/11 10:39:10;;;;;;;26.38;24.20;;;24.90;99.90;;;;;;6285622;22;20007;-92
2023/05/11 10:45:52;;;;;;;;;;;;;;;;;;;;;
2023/05/11 11:00:29;;;;;;;25.08;23.23;;;25.70;99.90;;;;;;6321668;22;20076;-92
2023/05/11 11:38:01;;;;;;;;;;;;;;;;;;;;;
2023/05/11 11:43:31;;;;;;;25.13;23.10;;;25.00;99.90;;;;;;6312520;22;20050;-93
2023/05/11 11:46:32;;;;;;;24.70;23.00;;;24.60;99.90;;;;;;6276943;22;20026;-92
2023/05/11 11:49:13;;;;;;;24.38;22.67;;;24.80;99.90;;;;;;6261896;22;20011;-93
2023/05/11 12:05:25;;;;;;;23.35;21.40;;;23.60;99.90;;;;;;6313868;22;20050;-94
2023/05/11 12:07:58;;;;;;;22.42;20.95;;;23.20;99.90;;;;;;6259709;22;20049;-92
2023/05/11 12:41:26;;;;;;;23.00;21.10;;;24.40;99.90;;;;;;6270527;22;20030;-92
2023/05/11 12:43:54;;;;;;;24.35;22.02;;;24.30;99.90;;;;;;6186679;23;20025;-89
2023/05/11 12:46:21;;;;;;;23.45;21.67;;;24.40;99.90;;;;;;6136376;23;20020;-86
2023/05/11 12:48:49;;;;;;;24.05;22.10;;;24.30;99.90;;;;;;6161236;23;20009;-89
2023/05/11 18:57:01;;;;;;;29.15;12.63;;;17.60;99.90;;;;;;6235815;22;20864;31
2023/05/11 18:59:27;;;;;;;28.30;13.30;;;17.50;99.90;;;;;;6168220;23;20396;-73
2023/05/11 19:01:54;;;;;;;25.92;13.63;;;17.50;99.90;;;;;;6216789;23;20008;-73
2023/05/11 19:04:21;;;;;;;21.88;13.85;;;17.40;99.90;;;;;;6217313;23;20004;-74
2023/05/11 19:06:48;;;;;;;34.92;12.63;;;17.50;99.90;;;;;;6217290;23;20013;-72
2023/05/11 19:09:15;;;;;;;20.10;12.07;;;17.50;99.90;;;;;;6187794;23;20009;-74
2023/05/11 19:11:43;;;;;;;38.75;12.73;;;17.40;99.90;;;;;;6160788;23;20005;-72
2023/05/11 19:14:13;;;;;;;32.88;12.80;;;17.50;99.90;;;;;;6186791;23;20084;-73
2023/05/11 19:16:40;;;;;;;27.55;12.88;;;17.50;99.90;;;;;;6187755;23;20005;-73
2023/05/11 19:19:07;;;;;;;27.42;12.27;;;17.50;99.90;;;;;;6160145;23;20311;-74
2023/05/11 19:21:38;;;;;;;30.38;13.07;;;17.50;99.90;;;;;;6185525;23;20009;-73
2023/05/11 19:24:08;;;;;;;30.40;12.48;;;17.40;99.90;;;;;;6186367;23;20441;-74
2023/05/11 19:26:37;;;;;;;28.05;13.02;;;17.30;99.90;;;;;;6186925;23;20052;-72
2023/05/11 19:29:04;;;;;;;28.30;12.93;;;17.30;99.90;;;;;;6187046;23;20056;-73
2023/05/11 19:31:37;;;;;;;36.88;13.05;;;17.30;99.90;;;;;;6186743;23;20446;-72
2023/05/11 19:34:12;;;;;;;28.88;11.98;;;17.30;99.90;;;;;;6185963;23;20339;-74
2023/05/11 19:36:41;;;;;;;27.83;12.93;;;17.30;99.90;;;;;;6186943;23;20013;-74
2023/05/11 19:39:08;;;;;;;25.88;12.00;;;17.20;99.90;;;;;;6186720;23;20088;-73
2023/05/11 19:41:35;;;;;;;31.40;13.00;;;17.10;99.90;;;;;;6186835;23;20334;-73
2023/05/11 19:44:02;;;;;;;36.13;13.63;;;17.10;99.90;;;;;;6185478;23;20001;-73
2023/05/11 19:46:28;;;;;;;23.60;12.20;;;17.10;99.90;;;;;;6159100;23;20032;-73
2023/05/11 19:48:55;;;;;;;34.33;13.10;;;17.10;99.90;;;;;;6157542;23;20016;-73
2023/05/11 19:51:23;;;;;;;32.15;12.75;;;17.10;99.90;;;;;;6186185;23;20008;-73
2023/05/11 19:53:50;;;;;;;27.15;13.25;;;17.00;99.90;;;;;;6185050;23;20020;-73
2023/05/11 19:56:20;;;;;;;22.98;11.98;;;17.10;99.90;;;;;;6186808;23;20052;-73
2023/05/11 19:58:47;;;;;;;29.83;12.15;;;17.10;99.90;;;;;;6186659;23;20025;-74
2023/05/11 20:01:15;;;;;;;27.25;12.18;;;17.10;99.90;;;;;;6186572;23;20009;-73
2023/05/11 20:03:42;;;;;;;36.33;14.60;;;17.00;99.90;;;;;;6160306;23;20009;-73
2023/05/11 20:06:08;;;;;;;31.73;14.70;;;17.00;99.90;;;;;;6186556;23;20005;-74
2023/05/11 20:08:36;;;;;;;40.92;14.57;;;17.00;99.90;;;;;;6186746;23;20080;-73
2023/05/11 20:11:03;;;;;;;30.45;14.23;;;17.00;99.90;;;;;;6186505;23;20491;-73
2023/05/11 20:13:30;;;;;;;37.53;13.82;;;17.00;99.90;;;;;;6160030;23;20390;-73
2023/05/11 20:15:59;;;;;;;29.63;13.65;;;17.00;99.90;;;;;;6160089;23;20009;-75
2023/05/11 20:18:26;;;;;;;35.22;12.73;;;17.00;99.90;;;;;;6186159;23;20454;-73
2023/05/11 20:20:53;;;;;;;27.80;13.15;;;16.90;99.90;;;;;;6185966;23;20435;-72
2023/05/11 20:23:20;;;;;;;30.98;13.43;;;16.90;99.90;;;;;;6186126;23;20021;-73
2023/05/11 20:25:47;;;;;;;32.47;11.80;;;16.90;99.90;;;;;;6186132;23;20112;-73
2023/05/11 20:28:13;;;;;;;25.33;11.88;;;16.90;99.90;;;;;;6159777;23;20101;-73
2023/05/11 20:30:39;;;;;;;22.40;11.65;;;16.90;99.90;;;;;;6186771;23;20001;-73
2023/05/11 20:33:07;;;;;;;20.30;11.80;;;16.90;99.90;;;;;;6186267;23;20040;-73
2023/05/11 20:35:33;;;;;;;28.05;12.15;;;16.90;99.90;;;;;;6186348;23;19997;-73
2023/05/11 20:38:00;;;;;;;29.42;12.30;;;16.90;99.90;;;;;;6184648;23;20338;-73
2023/05/11 20:40:27;;;;;;;25.55;12.10;;;16.90;99.90;;;;;;6186368;23;20380;-73
2023/05/11 20:42:53;;;;;;;32.25;12.52;;;16.80;99.90;;;;;;6159877;23;20036;-73
2023/05/11 20:45:20;;;;;;;30.00;11.73;;;16.80;99.90;;;;;;6160482;23;20057;-74
2023/05/11 20:47:46;;;;;;;24.02;10.93;;;16.80;99.90;;;;;;6159503;23;20017;-73
2023/05/11 20:50:14;;;;;;;30.67;12.00;;;16.70;99.90;;;;;;6185951;23;20008;-73
2023/05/11 20:52:40;;;;;;;29.85;11.52;;;16.70;99.90;;;;;;6185778;23;20016;-73
2023/05/11 20:55:07;;;;;;;35.60;12.98;;;16.80;99.90;;;;;;6186178;23;20001;-74
2023/05/11 20:57:35;;;;;;;24.25;11.40;;;16.80;99.90;;;;;;6192039;23;20322;-73
2023/05/11 21:00:01;;;;;;;30.33;11.82;;;16.80;99.90;;;;;;6215997;23;20012;-73
2023/05/11 21:02:27;;;;;;;30.88;12.48;;;16.80;99.90;;;;;;6189172;23;20016;-74
2023/05/11 21:05:00;;;;;;;32.38;11.98;;;16.80;99.90;;;;;;6215834;23;20000;-74
2023/05/11 21:07:29;;;;;;;28.60;12.13;;;16.80;99.90;;;;;;6215587;23;20105;-74
2023/05/11 21:09:56;;;;;;;32.15;11.32;;;16.80;99.90;;;;;;6164838;23;20088;-74
2023/05/11 21:12:22;;;;;;;26.70;11.65;;;16.80;99.90;;;;;;6215572;23;20004;-73
2023/05/11 21:14:48;;;;;;;33.58;12.88;;;16.80;99.90;;;;;;6216349;23;20011;-72
2023/05/11 21:17:15;;;;;;;31.70;11.98;;;16.90;99.90;;;;;;6214645;23;20013;-72
2023/05/11 21:19:41;;;;;;;34.60;12.93;;;16.90;99.90;;;;;;6189331;23;20001;-73
2023/05/11 21:22:08;;;;;;;32.97;12.50;;;16.90;99.90;;;;;;6215937;23;20020;-72
2023/05/11 21:24:36;;;;;;;31.08;12.35;;;16.90;99.90;;;;;;6216061;23;20500;-72
2023/05/11 21:27:03;;;;;;;27.60;11.23;;;16.90;99.90;;;;;;6189324;23;20023;-72
2023/05/11 21:29:32;;;;;;;36.22;11.98;;;17.00;99.90;;;;;;6215605;23;20362;-73
2023/05/11 21:31:59;;;;;;;30.55;11.95;;;17.00;99.90;;;;;;6215497;23;20027;-72
2023/05/11 21:34:25;;;;;;;29.67;11.57;;;17.00;99.90;;;;;;6214370;23;20434;-74
2023/05/11 21:36:52;;;;;;;32.40;12.10;;;17.00;99.90;;;;;;6214441;23;20080;-73
2023/05/11 21:39:18;;;;;;;43.55;12.27;;;17.00;99.90;;;;;;6215887;23;20004;-73
2023/05/11 21:41:45;;;;;;;27.98;12.48;;;17.00;99.90;;;;;;6215599;23;20435;-73
2023/05/11 21:44:12;;;;;;;30.10;12.07;;;17.00;99.90;;;;;;6189029;23;20019;-75
2023/05/11 21:46:39;;;;;;;25.15;11.70;;;17.00;99.90;;;;;;6215949;23;20013;-73
2023/05/11 21:49:05;;;;;;;26.52;11.82;;;17.00;99.90;;;;;;6216001;23;20437;-73
2023/05/11 21:51:32;;;;;;;33.85;12.60;;;17.00;99.90;;;;;;6189340;23;20000;-74
2023/05/11 21:53:59;;;;;;;30.20;12.07;;;16.90;99.90;;;;;;6216085;23;20391;-73
2023/05/11 21:56:25;;;;;;;34.88;12.10;;;16.90;99.90;;;;;;6188873;23;20062;-73
2023/05/11 21:58:52;;;;;;;35.25;12.52;;;16.90;99.90;;;;;;6215566;23;20017;-73
2023/05/11 22:01:18;;;;;;;33.30;14.30;;;16.80;99.90;;;;;;6215648;23;20434;-74
2023/05/11 22:03:45;;;;;;;30.75;12.75;;;16.80;99.90;;;;;;6188538;23;20012;-74
2023/05/11 22:06:11;;;;;;;32.05;14.63;;;16.80;99.90;;;;;;6214613;23;20419;-74
2023/05/11 22:08:37;;;;;;;33.20;13.27;;;16.80;99.90;;;;;;6214081;23;20025;-74
2023/05/11 22:11:03;;;;;;;38.15;14.15;;;16.80;99.90;;;;;;6217079;23;20015;-74
2023/05/11 22:13:30;;;;;;;36.20;13.20;;;16.80;99.90;;;;;;6217818;23;20012;-74
2023/05/11 22:15:56;;;;;;;30.70;12.82;;;16.80;99.90;;;;;;6216789;23;19997;-74
2023/05/11 22:18:23;;;;;;;27.02;13.05;;;16.80;99.90;;;;;;6218095;23;20005;-75
2023/05/11 22:20:49;;;;;;;24.88;12.32;;;16.80;99.90;;;;;;6217765;23;20001;-73
2023/05/11 22:23:16;;;;;;;34.22;11.73;;;16.80;99.90;;;;;;6217713;23;20059;-73
2023/05/11 22:25:48;;;;;;;36.53;13.05;;;16.80;99.90;;;;;;6217785;23;20008;-73
2023/05/11 22:28:14;;;;;;;33.75;12.38;;;16.70;99.90;;;;;;6217931;23;20024;-74
2023/05/11 22:30:41;;;;;;;30.85;12.70;;;16.80;99.90;;;;;;6191025;23;20004;-73
2023/05/11 22:33:07;;;;;;;38.45;12.65;;;16.70;99.90;;;;;;6217491;23;20017;-74
2023/05/11 22:35:34;;;;;;;23.85;11.63;;;16.70;99.90;;;;;;6217742;23;19997;-74
2023/05/11 22:38:03;;;;;;;37.80;12.63;;;16.80;99.90;;;;;;6217727;23;20316;-73
2023/05/11 22:40:30;;;;;;;22.02;11.57;;;16.80;99.90;;;;;;6217647;23;20044;-72
2023/05/11 22:42:56;;;;;;;26.02;11.57;;;16.80;99.90;;;;;;6217667;23;20008;-73
2023/05/11 22:45:23;;;;;;;29.15;12.02;;;16.80;99.90;;;;;;6217796;23;20485;-73
2023/05/11 22:48:04;;;;;;;33.08;12.88;;;16.80;99.90;;;;;;6192229;23;20023;-88
2023/05/11 22:50:35;;;;;;;30.73;12.32;;;16.80;99.90;;;;;;6252768;22;20031;-93
2023/05/11 22:53:05;;;;;;;28.23;12.18;;;16.80;99.90;;;;;;6214496;23;20040;-93
2023/05/11 22:55:32;;;;;;;22.50;12.52;;;16.80;99.90;;;;;;6247038;23;20072;-94
2023/05/11 22:58:02;;;;;;;24.70;11.75;;;16.80;99.90;;;;;;6239901;23;20088;-91
2023/05/11 23:00:30;;;;;;;27.20;11.93;;;16.90;99.90;;;;;;6232484;23;20014;-93
2023/05/11 23:03:06;;;;;;;30.30;13.55;;;16.90;99.90;;;;;;6259857;22;20077;-93
2023/05/11 23:05:34;;;;;;;;;;;16.90;99.90;;;;;;6291111;22;20008;-94
2023/05/11 23:08:03;;;;;;;32.88;12.60;;;16.90;99.90;;;;;;6236053;22;19918;-94
2023/05/11 23:10:30;;;;;;;26.02;12.75;;;16.90;99.90;;;;;;6253685;22;20008;-92
2023/05/11 23:12:58;;;;;;;25.33;12.45;;;16.90;99.90;;;;;;6241336;22;20460;-94
2023/05/11 23:15:27;;;;;;;28.13;12.77;;;16.90;99.90;;;;;;6274003;22;20003;-93
2023/05/11 23:17:59;;;;;;;36.40;12.98;;;16.90;99.90;;;;;;6178716;23;20102;-95
2023/05/11 23:20:27;;;;;;;26.98;12.60;;;16.90;99.90;;;;;;6181730;23;20025;-94
2023/05/11 23:22:57;;;;;;;33.97;13.40;;;16.90;99.90;;;;;;6197524;23;20005;-94
2023/05/11 23:25:32;;;;;;;34.38;12.80;;;16.90;99.90;;;;;;6181354;23;20017;-94
2023/05/11 23:28:12;;;;;;;33.67;13.25;;;16.80;99.90;;;;;;6202516;23;20017;-93
2023/05/11 23:34:13;;;;;;;33.47;13.07;;;16.80;99.90;;;;;;6207900;22;20104;-93
2023/05/11 23:37:09;;;;;;;29.42;13.63;;;16.90;99.90;;;;;;6217430;23;20024;-94
2023/05/11 23:39:43;;;;;;;29.23;13.27;;;16.90;99.90;;;;;;6113228;23;20009;-93
2023/05/11 23:42:17;;;;;;;34.72;12.75;;;16.80;99.90;;;;;;6149822;23;20014;-93
2023/05/11 23:45:03;;;;;;;32.63;12.95;;;16.80;99.90;;;;;;6169455;23;20101;-93
2023/05/11 23:47:32;;;;;;;19.52;12.40;;;16.70;99.90;;;;;;6196482;23;20049;-94
2023/05/11 23:50:01;;;;;;;25.50;12.50;;;16.70;99.90;;;;;;6173186;23;20006;-95
2023/05/11 23:52:33;;;;;;;28.77;13.23;;;16.70;99.90;;;;;;6148835;23;20020;-93
2023/05/11 23:55:04;;;;;;;26.92;12.82;;;16.70;99.90;;;;;;6148856;23;20016;-92
2023/05/11 23:57:39;;;;;;;35.33;13.48;;;16.70;99.90;;;;;;6162113;22;20005;-94
